createdAt,value
2022-11-21T00:00:52.232Z,68.73
2022-11-21T00:03:18.771Z,68.45
2022-11-21T00:05:47.491Z,68.92
2022-11-21T00:08:16.858Z,68.57
2022-11-21T00:10:43.849Z,69.92
2022-11-21T00:13:16.207Z,68.04
2022-11-21T00:15:43.820Z,66.78
2022-11-21T00:18:13.991Z,66.53
2022-11-21T00:20:41.936Z,67.48
2022-11-21T00:23:08.978Z,67.63
2022-11-21T00:25:36.181Z,67.99
2022-11-21T00:28:02.966Z,67.63
2022-11-21T00:30:29.507Z,66.39
2022-11-21T00:32:57.906Z,66.07
2022-11-21T00:35:24.367Z,65.41
2022-11-21T00:37:50.904Z,65.22
2022-11-21T00:40:18.176Z,65.65
2022-11-21T00:42:44.778Z,65.43
2022-11-21T00:45:12.013Z,65.49
2022-11-21T00:47:38.466Z,64.72
2022-11-21T00:50:05.265Z,65.12
2022-11-21T00:52:31.704Z,64.36
2022-11-21T00:54:58.204Z,65.21
2022-11-21T00:57:24.720Z,65.22
2022-11-21T00:59:51.146Z,65.00
2022-11-21T01:02:17.703Z,65.71
2022-11-21T01:04:44.337Z,65.55
2022-11-21T01:07:13.420Z,65.80
2022-11-21T01:09:39.945Z,65.16
2022-11-21T01:12:06.513Z,65.04
2022-11-21T01:14:32.933Z,65.08
2022-11-21T01:16:59.529Z,65.47
2022-11-21T01:19:25.998Z,65.82
2022-11-21T01:21:52.459Z,65.91
2022-11-21T01:24:18.881Z,66.07
2022-11-21T01:26:45.304Z,67.68
2022-11-21T01:29:11.842Z,68.91
2022-11-21T01:31:38.286Z,68.35
2022-11-21T01:34:04.755Z,66.85
2022-11-21T01:36:33.422Z,67.08
2022-11-21T01:39:05.474Z,66.62
2022-11-21T01:41:35.539Z,66.43
2022-11-21T01:44:07.153Z,66.66
2022-11-21T01:46:33.553Z,66.75
2022-11-21T01:48:59.934Z,66.78
2022-11-21T01:51:32.999Z,66.13
2022-11-21T01:54:14.374Z,65.84
2022-11-21T01:56:59.551Z,66.76
2022-11-21T01:59:34.675Z,66.48
2022-11-21T02:02:03.675Z,68.07
2022-11-21T02:04:32.809Z,70.19
2022-11-21T02:07:24.824Z,69.60
2022-11-21T02:09:56.734Z,69.47
2022-11-21T02:12:29.906Z,69.17
2022-11-21T02:14:57.651Z,69.65
2022-11-21T02:17:26.635Z,68.57
2022-11-21T02:19:57.662Z,67.50
2022-11-21T02:22:32.881Z,67.71
2022-11-21T02:25:15.687Z,67.14
2022-11-21T02:27:42.414Z,66.53
2022-11-21T02:30:10.506Z,66.46
2022-11-21T02:32:45.181Z,66.93
2022-11-21T02:35:11.595Z,67.10
2022-11-21T02:37:38.063Z,66.91
2022-11-21T02:40:12.838Z,66.90
2022-11-21T02:42:52.899Z,66.67
2022-11-21T02:45:33.179Z,67.22
2022-11-21T02:48:03.985Z,67.04
2022-11-21T02:50:36.261Z,67.35
2022-11-21T02:53:04.858Z,67.31
2022-11-21T02:55:31.674Z,67.63
2022-11-21T02:58:03.215Z,67.30
2022-11-21T03:00:32.123Z,67.33
2022-11-21T03:02:58.509Z,68.00
2022-11-21T03:05:25.093Z,67.46
2022-11-21T03:07:51.530Z,67.17
2022-11-21T03:10:18.008Z,67.77
2022-11-21T03:12:44.579Z,67.79
2022-11-21T03:15:13.489Z,67.99
2022-11-21T03:17:40.778Z,68.32
2022-11-21T03:20:08.280Z,67.87
2022-11-21T03:22:35.004Z,68.71
2022-11-21T03:25:01.520Z,68.69
2022-11-21T03:27:28.144Z,68.23
2022-11-21T03:29:54.555Z,68.38
2022-11-21T03:32:20.973Z,68.31
2022-11-21T03:34:47.396Z,68.07
2022-11-21T03:37:13.772Z,67.67
2022-11-21T03:39:40.176Z,68.22
2022-11-21T03:42:06.599Z,68.23
2022-11-21T03:44:33.124Z,68.37
2022-11-21T03:46:59.515Z,68.78
2022-11-21T03:49:25.923Z,70.08
2022-11-21T03:51:52.361Z,69.20
2022-11-21T03:54:18.800Z,69.13
2022-11-21T03:56:45.278Z,69.01
2022-11-21T03:59:11.833Z,69.68
2022-11-21T04:01:38.707Z,68.97
2022-11-21T04:04:05.652Z,70.31
2022-11-21T04:06:32.257Z,69.45
2022-11-21T04:08:58.669Z,70.49
2022-11-21T04:11:25.257Z,69.66
2022-11-21T04:13:54.470Z,69.65
2022-11-21T04:16:21.188Z,69.45
2022-11-21T04:18:47.823Z,68.60
2022-11-21T04:21:14.374Z,68.00
2022-11-21T04:23:40.935Z,67.29
2022-11-21T04:26:07.386Z,68.01
2022-11-21T04:28:33.828Z,67.63
2022-11-21T04:31:09.953Z,68.03
2022-11-21T04:33:37.527Z,67.31
2022-11-21T04:36:04.082Z,66.81
2022-11-21T04:38:30.542Z,67.55
2022-11-21T04:40:56.984Z,67.31
2022-11-21T04:43:23.410Z,67.04
2022-11-21T04:45:49.949Z,67.20
2022-11-21T04:48:16.501Z,67.46
2022-11-21T04:50:42.946Z,67.01
2022-11-21T04:53:09.362Z,66.92
2022-11-21T04:55:35.774Z,67.32
2022-11-21T04:58:02.194Z,66.81
2022-11-21T05:00:28.943Z,67.12
2022-11-21T05:02:55.397Z,67.23
2022-11-21T05:05:21.806Z,67.05
2022-11-21T05:07:48.210Z,66.48
2022-11-21T05:10:14.845Z,66.70
2022-11-21T05:12:59.760Z,66.79
2022-11-21T05:15:26.244Z,66.92
2022-11-21T05:17:52.656Z,66.44
2022-11-21T05:20:19.285Z,66.06
2022-11-21T05:22:49.904Z,66.88
2022-11-21T05:25:16.752Z,66.47
2022-11-21T05:27:43.250Z,67.24
2022-11-21T05:30:11.022Z,66.82
2022-11-21T05:32:37.828Z,66.77
2022-11-21T05:35:04.399Z,67.15
2022-11-21T05:37:30.965Z,66.86
2022-11-21T05:39:57.467Z,66.27
2022-11-21T05:42:43.849Z,67.01
2022-11-21T05:45:10.675Z,66.63
2022-11-21T05:47:37.248Z,66.31
2022-11-21T05:50:04.163Z,66.75
2022-11-21T05:52:30.716Z,66.71
2022-11-21T05:54:57.128Z,66.69
2022-11-21T05:57:23.552Z,67.02
2022-11-21T05:59:49.948Z,66.43
2022-11-21T06:02:35.038Z,66.22
2022-11-21T06:05:01.469Z,66.54
2022-11-21T06:07:28.179Z,66.40
2022-11-21T06:09:54.616Z,66.34
2022-11-21T06:12:25.207Z,66.79
2022-11-21T06:14:52.198Z,67.71
2022-11-21T06:17:18.669Z,67.32
2022-11-21T06:19:45.144Z,67.13
2022-11-21T06:22:11.556Z,67.07
2022-11-21T06:24:37.977Z,66.73
2022-11-21T06:27:04.393Z,66.87
2022-11-21T06:29:30.836Z,67.38
2022-11-21T06:31:57.286Z,67.47
2022-11-21T06:34:26.313Z,66.70
2022-11-21T06:36:53.433Z,67.11
2022-11-21T06:39:19.973Z,67.12
2022-11-21T06:41:51.153Z,67.40
2022-11-21T06:44:18.559Z,67.66
2022-11-21T06:46:50.668Z,67.19
2022-11-21T06:49:17.707Z,67.64
2022-11-21T06:51:44.295Z,67.22
2022-11-21T06:54:16.259Z,66.77
2022-11-21T06:56:43.487Z,66.91
2022-11-21T06:59:10.029Z,67.09
2022-11-21T07:01:36.616Z,67.24
2022-11-21T07:04:03.099Z,67.33
2022-11-21T07:06:29.525Z,67.45
2022-11-21T07:09:25.221Z,67.45
2022-11-21T07:11:43.061Z,67.77
2022-11-21T07:14:09.764Z,67.04
2022-11-21T07:16:36.687Z,66.97
2022-11-21T07:19:03.255Z,67.41
2022-11-21T07:21:29.727Z,67.66
2022-11-21T07:23:56.207Z,67.23
2022-11-21T07:26:22.605Z,67.09
2022-11-21T07:28:49.107Z,67.65
2022-11-21T07:31:15.718Z,67.62
2022-11-21T07:33:46.746Z,68.01
2022-11-21T07:36:13.649Z,67.46
2022-11-21T07:38:41.475Z,67.60
2022-11-21T07:41:08.635Z,68.10
2022-11-21T07:43:35.091Z,67.05
2022-11-21T07:46:01.562Z,68.22
2022-11-21T07:48:28.021Z,67.81
2022-11-21T07:50:54.417Z,67.70
2022-11-21T07:53:20.917Z,68.04
2022-11-21T07:55:47.398Z,67.39
2022-11-21T07:58:16.038Z,66.67
2022-11-21T08:00:45.156Z,66.47
2022-11-21T08:03:12.822Z,67.00
2022-11-21T08:05:42.443Z,67.03
2022-11-21T08:08:10.459Z,67.35
2022-11-21T08:10:38.893Z,66.82
2022-11-21T08:13:05.712Z,67.17
2022-11-21T08:15:32.501Z,68.10
2022-11-21T08:17:59.035Z,68.69
2022-11-21T08:20:25.478Z,68.77
2022-11-21T08:22:51.949Z,67.88
2022-11-21T08:25:18.358Z,67.61
2022-11-21T08:27:44.909Z,67.74
2022-11-21T08:30:12.197Z,68.06
2022-11-21T08:32:38.668Z,68.09
2022-11-21T08:35:05.561Z,67.81
2022-11-21T08:37:32.167Z,66.81
2022-11-21T08:39:59.003Z,67.66
2022-11-21T08:42:26.008Z,68.18
2022-11-21T08:44:52.523Z,66.72
2022-11-21T08:47:20.425Z,67.54
2022-11-21T08:49:47.775Z,68.84
2022-11-21T08:52:17.472Z,68.87
2022-11-21T08:54:45.322Z,68.15
2022-11-21T08:57:12.625Z,67.62
2022-11-21T08:59:39.189Z,68.32
2022-11-21T09:02:05.692Z,67.89
2022-11-21T09:04:32.243Z,68.38
2022-11-21T09:06:58.710Z,67.44
2022-11-21T09:09:25.783Z,68.61
2022-11-21T09:11:52.446Z,68.23
2022-11-21T09:14:37.866Z,67.01
2022-11-21T09:17:23.048Z,67.14
2022-11-21T09:19:49.537Z,67.18
2022-11-21T09:22:15.924Z,67.34
2022-11-21T09:24:42.337Z,66.70
2022-11-21T09:27:08.753Z,66.89
2022-11-21T09:29:35.172Z,66.68
2022-11-21T09:32:01.599Z,66.69
2022-11-21T09:34:28.242Z,66.89
2022-11-21T09:36:55.528Z,67.67
2022-11-21T09:39:22.229Z,67.56
2022-11-21T09:42:03.644Z,66.86
2022-11-21T09:44:39.228Z,66.90
2022-11-21T09:47:20.096Z,66.69
2022-11-21T09:49:51.514Z,66.25
2022-11-21T09:52:19.198Z,66.42
2022-11-21T09:54:53.635Z,65.58
2022-11-21T09:57:24.432Z,65.73
2022-11-21T09:59:52.052Z,66.30
2022-11-21T10:02:21.399Z,65.81
2022-11-21T10:04:48.794Z,66.61
2022-11-21T10:07:29.211Z,65.51
2022-11-21T10:10:01.283Z,64.52
2022-11-21T10:13:00.132Z,64.50
2022-11-21T10:15:52.470Z,65.01
2022-11-21T10:18:52.709Z,64.87
2022-11-21T10:21:48.878Z,64.42
2022-11-21T10:24:30.915Z,64.50
2022-11-21T10:27:11.692Z,66.69
2022-11-21T10:29:53.206Z,65.63
2022-11-21T10:32:37.422Z,65.37
2022-11-21T10:35:22.112Z,65.05
2022-11-21T10:37:52.673Z,64.77
2022-11-21T10:40:43.657Z,64.86
2022-11-21T10:43:34.819Z,65.16
2022-11-21T10:46:01.263Z,64.55
2022-11-21T10:48:27.686Z,63.54
2022-11-21T10:51:25.116Z,64.40
2022-11-21T10:54:29.116Z,65.65
2022-11-21T10:57:06.090Z,65.59
2022-11-21T10:59:32.690Z,65.73
2022-11-21T11:02:12.794Z,64.84
2022-11-21T11:04:47.416Z,64.60
2022-11-21T11:07:27.653Z,64.08
2022-11-21T11:10:27.547Z,65.11
2022-11-21T11:13:44.004Z,65.27
2022-11-21T11:16:18.456Z,64.26
2022-11-21T11:18:51.629Z,64.84
2022-11-21T11:21:24.761Z,64.84
2022-11-21T11:23:53.463Z,64.33
2022-11-21T11:26:31.387Z,63.81
2022-11-21T11:29:15.631Z,63.76
2022-11-21T11:31:44.013Z,63.25
2022-11-21T11:34:15.138Z,63.17
2022-11-21T11:36:50.497Z,62.24
2022-11-21T11:39:24.922Z,62.98
2022-11-21T11:42:39.679Z,63.29
2022-11-21T11:45:30.847Z,64.42
2022-11-21T11:48:01.406Z,66.26
2022-11-21T11:50:43.712Z,65.19
2022-11-21T11:53:35.032Z,63.49
2022-11-21T11:56:18.769Z,64.25
2022-11-21T11:58:54.871Z,65.25
2022-11-21T12:01:25.231Z,64.44
2022-11-21T12:04:00.014Z,64.64
2022-11-21T12:06:57.362Z,65.30
2022-11-21T12:09:39.820Z,65.87
2022-11-21T12:12:16.248Z,65.14
2022-11-21T12:15:18.237Z,64.90
2022-11-21T12:18:15.352Z,64.53
2022-11-21T12:21:02.777Z,65.01
2022-11-21T12:23:36.803Z,64.93
2022-11-21T12:26:28.109Z,65.77
2022-11-21T12:29:32.512Z,65.28
2022-11-21T12:32:09.050Z,65.54
2022-11-21T12:34:41.305Z,66.14
2022-11-21T12:37:44.661Z,67.64
2022-11-21T12:40:46.202Z,68.13
2022-11-21T12:43:19.170Z,67.19
2022-11-21T12:45:52.800Z,65.71
2022-11-21T12:48:59.064Z,64.99
2022-11-21T12:51:50.650Z,65.38
2022-11-21T12:54:33.230Z,65.05
2022-11-21T12:57:13.978Z,65.23
2022-11-21T12:59:49.649Z,64.92
2022-11-21T13:02:29.425Z,65.18
2022-11-21T13:04:58.439Z,65.60
2022-11-21T13:07:29.570Z,65.55
2022-11-21T13:09:59.030Z,65.24
2022-11-21T13:13:02.717Z,65.25
2022-11-21T13:15:40.482Z,66.44
2022-11-21T13:18:41.729Z,65.67
2022-11-21T13:21:41.531Z,64.97
2022-11-21T13:24:08.684Z,66.14
2022-11-21T13:26:37.937Z,66.23
2022-11-21T13:29:14.540Z,65.44
2022-11-21T13:31:41.873Z,65.30
2022-11-21T13:34:37.341Z,64.61
2022-11-21T13:37:05.183Z,64.43
2022-11-21T13:39:33.915Z,65.17
2022-11-21T13:42:20.906Z,65.61
2022-11-21T13:44:48.121Z,65.74
2022-11-21T13:47:26.393Z,64.71
2022-11-21T13:50:05.408Z,65.41
2022-11-21T13:52:49.544Z,65.26
2022-11-21T13:55:54.840Z,67.73
2022-11-21T13:58:48.862Z,66.40
2022-11-21T14:01:27.540Z,65.05
2022-11-21T14:04:12.923Z,64.12
2022-11-21T14:06:43.416Z,64.25
2022-11-21T14:09:13.048Z,64.19
2022-11-21T14:11:48.091Z,64.75
2022-11-21T14:14:49.699Z,65.31
2022-11-21T14:17:47.296Z,66.02
2022-11-21T14:20:22.470Z,64.92
2022-11-21T14:23:00.273Z,64.59
2022-11-21T14:25:49.314Z,65.32
2022-11-21T14:28:25.188Z,66.58
2022-11-21T14:31:00.141Z,67.15
2022-11-21T14:33:33.595Z,66.94
2022-11-21T14:36:03.220Z,65.31
2022-11-21T14:38:33.011Z,65.81
2022-11-21T14:41:26.790Z,65.31
2022-11-21T14:43:58.972Z,66.27
2022-11-21T14:46:27.570Z,70.66
2022-11-21T14:48:54.565Z,68.28
2022-11-21T14:51:24.213Z,67.88
2022-11-21T14:53:53.573Z,66.39
2022-11-21T14:56:23.421Z,68.36
2022-11-21T14:58:51.608Z,67.58
2022-11-21T15:01:21.950Z,66.85
2022-11-21T15:04:04.310Z,67.04
2022-11-21T15:06:39.703Z,68.25
2022-11-21T15:12:02.441Z,68.55
2022-11-21T15:15:13.239Z,69.39
2022-11-21T15:18:03.391Z,69.80
2022-11-21T15:20:28.214Z,71.06
2022-11-21T15:22:57.566Z,70.22
2022-11-21T15:25:47.328Z,69.36
2022-11-21T15:28:18.287Z,69.07
2022-11-21T15:30:45.520Z,68.38
2022-11-21T15:33:17.533Z,70.15
2022-11-21T15:36:13.821Z,69.81
2022-11-21T15:38:53.456Z,69.02
2022-11-21T15:41:19.814Z,68.50
2022-11-21T15:43:52.241Z,68.42
2022-11-21T15:46:25.464Z,70.90
2022-11-21T15:48:55.697Z,70.76
2022-11-21T15:52:06.217Z,69.15
2022-11-21T15:54:28.634Z,70.11
2022-11-21T15:56:55.363Z,70.55
2022-11-21T15:59:21.783Z,69.69
2022-11-21T16:01:48.207Z,69.32
2022-11-21T16:04:14.934Z,69.07
2022-11-21T16:06:41.550Z,68.43
2022-11-21T16:09:07.987Z,69.98
2022-11-21T16:11:43.570Z,69.01
2022-11-21T16:14:14.266Z,69.92
2022-11-21T16:16:43.713Z,69.25
2022-11-21T16:19:11.985Z,67.92
2022-11-21T16:21:38.906Z,68.06
2022-11-21T16:24:05.821Z,68.01
2022-11-21T16:26:33.380Z,67.95
2022-11-21T16:29:01.047Z,67.91
2022-11-21T16:31:29.801Z,67.50
2022-11-21T16:33:56.627Z,67.73
2022-11-21T16:36:27.180Z,66.80
2022-11-21T16:38:53.935Z,67.12
2022-11-21T16:41:22.494Z,67.33
2022-11-21T16:43:51.302Z,67.02
2022-11-21T16:46:18.944Z,67.24
2022-11-21T16:48:45.577Z,66.83
2022-11-21T16:51:20.213Z,66.50
2022-11-21T16:53:49.173Z,67.78
2022-11-21T16:56:16.595Z,67.30
2022-11-21T16:58:43.283Z,66.60
2022-11-21T17:01:12.620Z,67.02
2022-11-21T17:03:40.546Z,66.69
2022-11-21T17:06:08.025Z,67.54
2022-11-21T17:08:35.283Z,66.89
2022-11-21T17:11:11.675Z,67.12
2022-11-21T17:13:38.194Z,67.80
2022-11-21T17:16:07.896Z,68.05
2022-11-21T17:18:34.347Z,68.10
2022-11-21T17:21:05.266Z,68.24
2022-11-21T17:23:32.838Z,67.73
2022-11-21T17:26:04.188Z,67.77
2022-11-21T17:28:30.640Z,68.07
2022-11-21T17:30:57.198Z,68.50
2022-11-21T17:33:23.915Z,68.76
2022-11-21T17:35:50.733Z,68.25
2022-11-21T17:38:17.408Z,68.46
2022-11-21T17:40:44.075Z,68.21
2022-11-21T17:43:10.611Z,68.29
2022-11-21T17:45:37.046Z,68.88
2022-11-21T17:48:03.603Z,68.42
2022-11-21T17:50:30.062Z,68.91
2022-11-21T17:52:57.123Z,68.50
2022-11-21T17:55:23.515Z,68.73
2022-11-21T17:57:49.985Z,69.06
2022-11-21T18:00:16.496Z,68.34
2022-11-21T18:02:43.096Z,68.85
2022-11-21T18:05:09.706Z,68.97
2022-11-21T18:07:37.642Z,68.60
2022-11-21T18:10:20.822Z,68.83
2022-11-21T18:12:51.492Z,69.17
2022-11-21T18:15:18.066Z,68.70
2022-11-21T18:17:44.738Z,68.57
2022-11-21T18:20:11.467Z,68.49
2022-11-21T18:22:37.848Z,68.15
2022-11-21T18:25:04.550Z,68.55
2022-11-21T18:27:31.030Z,67.89
2022-11-21T18:29:57.424Z,67.91
2022-11-21T18:32:24.068Z,67.92
2022-11-21T18:34:50.533Z,67.91
2022-11-21T18:37:16.924Z,68.68
2022-11-21T18:39:43.352Z,67.71
2022-11-21T18:42:09.766Z,68.13
2022-11-21T18:44:36.153Z,68.08
2022-11-21T18:47:11.972Z,67.57
2022-11-21T18:49:45.976Z,68.15
2022-11-21T18:52:12.364Z,67.83
2022-11-21T18:54:39.907Z,67.50
2022-11-21T18:57:06.361Z,67.30
2022-11-21T18:59:32.787Z,67.31
2022-11-21T19:01:59.286Z,67.27
2022-11-21T19:04:25.843Z,67.24
2022-11-21T19:06:52.314Z,67.89
2022-11-21T19:09:18.853Z,67.35
2022-11-21T19:11:45.361Z,67.67
2022-11-21T19:14:11.845Z,67.63
2022-11-21T19:16:38.349Z,66.96
2022-11-21T19:21:56.963Z,67.00
2022-11-21T19:24:24.475Z,67.13
2022-11-21T19:26:51.013Z,67.23
2022-11-21T19:29:17.741Z,66.78
2022-11-21T19:31:46.009Z,66.87
2022-11-21T19:34:16.548Z,67.15
2022-11-21T19:36:43.352Z,67.68
2022-11-21T19:39:09.960Z,67.20
2022-11-21T19:41:36.796Z,67.94
2022-11-21T19:44:03.854Z,67.14
2022-11-21T19:46:36.727Z,67.56
2022-11-21T19:49:04.057Z,67.16
2022-11-21T19:51:33.554Z,67.32
2022-11-21T19:54:02.281Z,66.70
2022-11-21T19:56:28.891Z,67.09
2022-11-21T19:58:56.834Z,67.38
2022-11-21T20:01:25.807Z,66.50
2022-11-21T20:03:54.940Z,66.98
2022-11-21T20:06:24.500Z,66.66
2022-11-21T20:08:54.035Z,66.22
2022-11-21T20:11:21.463Z,65.70
2022-11-21T20:13:49.258Z,65.90
2022-11-21T20:16:19.935Z,65.66
2022-11-21T20:18:46.868Z,65.95
2022-11-21T20:21:14.067Z,65.24
2022-11-21T20:23:40.556Z,65.43
2022-11-21T20:26:08.856Z,65.56
2022-11-21T20:28:36.686Z,65.59
2022-11-21T20:31:19.721Z,65.38
2022-11-21T20:33:51.429Z,64.66
2022-11-21T20:36:20.318Z,64.83
2022-11-21T20:39:00.937Z,64.67
2022-11-21T20:41:30.216Z,64.80
2022-11-21T20:46:45.518Z,64.80
2022-11-21T20:49:12.560Z,64.93
2022-11-21T20:54:26.591Z,64.49
2022-11-21T20:56:53.188Z,64.64
2022-11-21T20:59:19.583Z,64.57
2022-11-21T21:01:46.092Z,64.23
2022-11-21T21:04:12.542Z,64.32
2022-11-21T21:06:39.547Z,65.27
2022-11-21T21:09:06.078Z,65.07
2022-11-21T21:14:19.150Z,64.23
2022-11-21T21:16:45.709Z,65.08
2022-11-21T21:19:12.110Z,66.13
2022-11-21T21:21:40.178Z,65.38
2022-11-21T21:24:09.566Z,64.85
2022-11-21T21:26:43.223Z,66.13
2022-11-21T21:29:12.244Z,66.11
2022-11-21T21:31:38.989Z,66.67
2022-11-21T21:34:05.448Z,66.94
2022-11-21T21:36:32.425Z,65.17
2022-11-21T21:38:59.978Z,65.83
2022-11-21T21:41:27.972Z,65.57
2022-11-21T21:43:55.856Z,64.85
2022-11-21T21:46:24.492Z,65.42
2022-11-21T21:48:56.321Z,64.76
2022-11-21T21:51:22.779Z,64.71
2022-11-21T21:53:50.794Z,64.47
2022-11-21T21:56:18.673Z,64.36
2022-11-21T21:58:47.164Z,64.95
2022-11-21T22:01:22.834Z,64.71
2022-11-21T22:03:53.022Z,64.68
2022-11-21T22:06:19.833Z,65.09
2022-11-21T22:08:47.989Z,65.65
2022-11-21T22:11:17.165Z,65.69
2022-11-21T22:13:45.961Z,66.20
2022-11-21T22:16:13.174Z,66.28
2022-11-21T22:18:40.511Z,65.66
2022-11-21T22:21:17.681Z,66.43
2022-11-21T22:24:02.911Z,66.00
2022-11-21T22:26:31.474Z,66.48
2022-11-21T22:28:57.961Z,66.97
2022-11-21T22:31:24.437Z,66.63
2022-11-21T22:33:50.896Z,67.25
2022-11-21T22:36:18.632Z,67.19
2022-11-21T22:38:45.258Z,67.36
2022-11-21T22:41:17.167Z,67.10
2022-11-21T22:43:44.918Z,67.34
2022-11-21T22:46:12.799Z,67.14
2022-11-21T22:48:40.231Z,67.23
2022-11-21T22:51:07.395Z,67.54
2022-11-21T22:53:39.759Z,67.14
2022-11-21T22:56:10.948Z,67.29
2022-11-21T22:58:39.626Z,68.27
2022-11-21T23:01:10.682Z,68.71
2022-11-21T23:03:37.306Z,68.72
2022-11-21T23:06:12.089Z,68.32
2022-11-21T23:08:39.917Z,69.03
2022-11-21T23:11:18.017Z,69.15
2022-11-21T23:13:46.372Z,69.40
2022-11-21T23:16:13.516Z,69.21
2022-11-21T23:18:40.453Z,69.08
2022-11-21T23:21:07.597Z,69.79
2022-11-21T23:23:34.474Z,69.49
2022-11-21T23:26:01.118Z,69.44
2022-11-21T23:28:27.632Z,69.06
2022-11-21T23:30:54.992Z,69.32
2022-11-21T23:33:21.737Z,69.32
2022-11-21T23:35:48.453Z,69.48
2022-11-21T23:38:16.418Z,68.66
2022-11-21T23:40:45.209Z,68.96
2022-11-21T23:43:12.180Z,68.31
2022-11-21T23:45:38.940Z,68.52
2022-11-21T23:48:05.467Z,68.95
2022-11-21T23:50:31.952Z,68.57
2022-11-21T23:52:58.506Z,68.72
2022-11-21T23:55:24.900Z,68.03
2022-11-21T23:57:51.654Z,68.95
